Time;durP1;ratioP1;P1;durP2;ratioP2;P2;SDS_P1;SDS_P2;PMS_P1;PMS_P2;Temp;Humidity;BMP_temperature;BMP_pressure;BME280_temperature;BME280_humidity;BME280_pressure;Samples;Min_cycle;Max_cycle;Signal;HPM_P1;HPM_P2
2022/06/01 04:05:46;;;;;;;4.53;3.17;;;9.60;99.90;;;;;;5009111;23;20219;-80
2022/06/01 04:08:15;;;;;;;3.50;3.17;;;9.60;99.90;;;;;;4959157;28;20675;-80
2022/06/01 04:10:44;;;;;;;4.20;2.83;;;10.00;99.90;;;;;;4972975;28;20297;-79
2022/06/01 04:13:13;;;;;;;2.70;2.50;;;10.50;99.90;;;;;;4971865;28;20306;-80
2022/06/01 04:15:41;;;;;;;2.53;2.33;;;10.80;99.90;;;;;;4970602;28;20227;-80
2022/06/01 04:18:10;;;;;;;3.10;2.77;;;10.60;99.90;;;;;;4967893;28;20258;-78
2022/06/01 04:20:38;;;;;;;4.90;2.50;;;10.60;99.90;;;;;;4966804;28;20220;-80
2022/06/01 04:23:08;;;;;;;7.63;2.80;;;10.50;99.90;;;;;;4963707;28;20250;-79
2022/06/01 04:25:36;;;;;;;5.03;3.00;;;10.40;99.90;;;;;;4972251;28;20615;-81
2022/06/01 04:28:05;;;;;;;2.80;2.50;;;10.30;99.90;;;;;;4973865;28;20211;-81
2022/06/01 04:30:33;;;;;;;3.43;2.77;;;10.20;99.90;;;;;;4971101;28;20346;-81
2022/06/01 04:33:03;;;;;;;6.80;2.80;;;10.20;99.90;;;;;;4969588;28;20641;-80
2022/06/01 04:35:31;;;;;;;4.20;2.90;;;10.20;99.90;;;;;;4972821;28;20219;-80
2022/06/01 04:38:12;;;;;;;3.07;2.40;;;10.10;99.90;;;;;;4966070;28;20269;-80
2022/06/01 04:40:44;;;;;;;4.43;2.77;;;10.20;99.90;;;;;;4965028;28;20270;-80
2022/06/01 04:43:13;;;;;;;8.67;3.20;;;10.20;99.90;;;;;;4969770;28;20242;-78
2022/06/01 04:45:41;;;;;;;3.20;2.80;;;10.20;99.90;;;;;;4969419;28;20217;-81
2022/06/01 04:48:10;;;;;;;4.20;2.90;;;10.30;99.90;;;;;;4960659;28;20207;-78
2022/06/01 04:50:42;;;;;;;3.87;2.83;;;10.30;99.90;;;;;;4967942;28;20247;-78
2022/06/01 04:53:11;;;;;;;2.70;2.50;;;10.50;99.90;;;;;;4962078;28;20660;-81
2022/06/01 04:55:42;;;;;;;3.07;2.60;;;10.50;99.90;;;;;;4961423;28;20207;-80
2022/06/01 04:58:10;;;;;;;2.60;2.40;;;10.60;99.90;;;;;;4953297;28;20267;-80
2022/06/01 05:00:40;;;;;;;3.73;2.40;;;10.70;99.90;;;;;;4953000;28;20262;-81
2022/06/01 05:03:08;;;;;;;4.17;2.50;;;10.80;99.90;;;;;;4950106;29;20212;-76
2022/06/01 05:05:39;;;;;;;3.17;2.53;;;10.90;99.90;;;;;;4946937;29;20219;-77
2022/06/01 05:08:11;;;;;;;5.23;2.40;;;11.00;99.90;;;;;;4954298;29;20233;-77
2022/06/01 05:10:40;;;;;;;2.97;2.50;;;11.10;99.90;;;;;;4954168;29;20210;-76
2022/06/01 05:13:11;;;;;;;3.70;2.40;;;11.20;99.90;;;;;;4953722;29;20245;-76
2022/06/01 05:15:45;;;;;;;3.63;2.33;;;11.30;99.90;;;;;;4953612;29;20271;-76
2022/06/01 05:18:14;;;;;;;3.23;2.63;;;11.40;99.90;;;;;;4948576;28;20273;-81
2022/06/01 05:20:42;;;;;;;3.23;2.50;;;11.50;99.90;;;;;;4949789;28;20204;-80
2022/06/01 05:23:10;;;;;;;3.83;2.47;;;11.60;99.90;;;;;;4952685;29;20298;-78
2022/06/01 05:25:42;;;;;;;2.80;2.30;;;11.70;99.90;;;;;;4957650;29;20219;-79
2022/06/01 05:28:12;;;;;;;3.27;2.57;;;11.80;99.90;;;;;;4958300;29;20215;-80
2022/06/01 05:30:40;;;;;;;4.30;2.50;;;12.00;99.90;;;;;;4958816;29;20243;-80
2022/06/01 05:33:08;;;;;;;2.67;2.40;;;12.10;99.90;;;;;;4958708;29;20251;-81
2022/06/01 05:35:37;;;;;;;3.47;2.20;;;12.40;99.90;;;;;;4958352;29;20282;-76
2022/06/01 05:38:05;;;;;;;2.83;2.50;;;12.40;99.90;;;;;;4957029;29;20235;-76
2022/06/01 05:40:33;;;;;;;2.90;2.50;;;12.60;99.90;;;;;;4957821;29;20254;-77
2022/06/01 05:43:10;;;;;;;2.70;2.40;;;12.70;99.90;;;;;;4958836;29;20204;-76
2022/06/01 05:45:40;;;;;;;3.53;2.20;;;13.00;99.90;;;;;;4956708;29;20242;-77
2022/06/01 05:48:09;;;;;;;3.17;2.00;;;13.30;99.90;;;;;;4957741;29;20204;-81
2022/06/01 05:50:38;;;;;;;3.23;1.77;;;13.80;99.90;;;;;;4957047;29;20897;-78
2022/06/01 05:53:06;;;;;;;3.57;1.60;;;14.80;99.90;;;;;;4957664;29;20223;-78
2022/06/01 05:55:36;;;;;;;1.87;1.60;;;16.30;99.90;;;;;;4952811;29;20279;-77
2022/06/01 05:58:12;;;;;;;2.10;1.60;;;17.80;99.90;;;;;;4956975;29;20263;-77
2022/06/01 06:00:41;;;;;;;4.83;1.73;;;19.10;99.90;;;;;;4957359;29;20605;-75
2022/06/01 06:03:11;;;;;;;3.60;1.70;;;20.40;99.90;;;;;;4956976;29;20207;-77
2022/06/01 06:08:28;;;;;;;2.70;1.60;;;21.50;99.90;;;;;;4956847;29;20211;-76
2022/06/01 06:10:56;;;;;;;2.10;1.60;;;22.60;99.90;;;;;;4956947;29;20258;-82
2022/06/01 06:13:24;;;;;;;2.43;1.70;;;23.10;99.90;;;;;;4956362;29;20772;-81
2022/06/01 06:15:53;;;;;;;2.37;1.50;;;24.20;99.90;;;;;;4955957;29;20208;-80
2022/06/01 06:18:22;;;;;;;2.17;1.60;;;24.50;99.90;;;;;;4957099;29;20270;-80
2022/06/01 06:20:50;;;;;;;1.67;1.40;;;24.40;99.90;;;;;;4956600;29;20239;-78
2022/06/01 06:23:18;;;;;;;4.18;1.67;;;24.90;98.80;;;;;;4956833;29;20571;-81
2022/06/01 06:25:46;;;;;;;3.08;1.58;;;24.80;99.40;;;;;;4955952;29;20247;-77
2022/06/01 06:28:14;;;;;;;2.35;1.40;;;25.50;97.60;;;;;;4956340;29;20207;-77
2022/06/01 06:30:43;;;;;;;2.17;1.70;;;25.90;98.20;;;;;;4956296;28;20235;-77
2022/06/01 06:33:12;;;;;;;1.70;1.60;;;26.00;97.60;;;;;;4953099;28;20219;-79
2022/06/01 06:35:40;;;;;;;2.30;1.42;;;26.50;95.60;;;;;;4955529;29;20266;-81
2022/06/01 06:38:09;;;;;;;1.50;1.40;;;26.90;94.30;;;;;;4958184;29;20246;-81
2022/06/01 06:40:37;;;;;;;1.50;1.40;;;27.20;93.30;;;;;;4959378;29;20274;-81
2022/06/01 06:43:06;;;;;;;3.78;1.67;;;27.80;92.20;;;;;;4956370;29;20638;-79
2022/06/01 06:45:34;;;;;;;1.67;1.58;;;28.30;91.30;;;;;;4954695;28;20219;-78
2022/06/01 06:48:02;;;;;;;3.90;1.60;;;28.50;90.60;;;;;;4956132;29;20219;-81
2022/06/01 06:50:34;;;;;;;3.28;1.60;;;28.30;90.30;;;;;;4955749;29;20211;-78
2022/06/01 06:53:21;;;;;;;3.75;1.98;;;29.40;89.30;;;;;;4955426;29;20255;-78
2022/06/01 06:55:50;;;;;;;4.30;2.10;;;29.20;86.80;;;;;;4954703;29;20215;-78
2022/06/01 06:58:18;;;;;;;3.92;2.03;;;28.40;87.90;;;;;;4955417;28;20215;-78
2022/06/01 07:00:47;;;;;;;2.85;1.60;;;28.60;87.90;;;;;;4954211;29;20227;-77
2022/06/01 07:03:15;;;;;;;2.03;1.65;;;29.00;86.50;;;;;;4955609;28;20563;-77
2022/06/01 07:08:31;;;;;;;3.60;1.70;;;28.50;85.50;;;;;;4955565;29;20203;-76
2022/06/01 07:11:00;;;;;;;4.78;1.60;;;28.70;86.30;;;;;;4955530;29;20220;-77
2022/06/01 07:13:28;;;;;;;2.10;1.50;;;28.90;83.00;;;;;;4953528;29;20207;-77
2022/06/01 07:16:05;;;;;;;4.45;1.58;;;28.60;83.30;;;;;;4954171;29;20239;-76
2022/06/01 07:18:33;;;;;;;2.95;1.30;;;29.30;82.20;;;;;;4954886;28;20740;-78
2022/06/01 07:21:04;;;;;;;2.92;1.70;;;29.90;80.00;;;;;;4954196;29;20329;-79
2022/06/01 07:23:35;;;;;;;3.15;1.60;;;29.70;80.00;;;;;;4954620;29;20212;-80
2022/06/01 07:26:04;;;;;;;4.45;1.52;;;30.20;78.20;;;;;;4954957;29;20208;-77
2022/06/01 07:28:33;;;;;;;2.58;1.63;;;30.80;76.50;;;;;;4955267;29;20307;-76
2022/06/01 07:31:01;;;;;;;2.00;1.60;;;30.70;75.20;;;;;;4953893;29;20235;-80
2022/06/01 07:33:31;;;;;;;2.72;1.70;;;30.60;74.50;;;;;;4954038;29;20295;-78
2022/06/01 07:36:00;;;;;;;1.88;1.50;;;30.40;75.70;;;;;;4952920;29;20211;-76
2022/06/01 07:44:08;;;;;;;2.28;1.73;;;30.90;72.40;;;;;;4949924;28;20247;-78
2022/06/01 07:46:38;;;;;;;3.00;1.70;;;30.80;72.10;;;;;;4954600;29;20204;-79
2022/06/01 07:49:13;;;;;;;1.85;1.52;;;30.40;74.00;;;;;;4954291;28;20215;-76
2022/06/01 07:52:01;;;;;;;3.80;1.80;;;30.40;73.60;;;;;;4953797;29;20242;-76
2022/06/01 07:54:31;;;;;;;2.13;1.80;;;30.70;75.40;;;;;;4953518;29;20208;-77
2022/06/01 07:56:59;;;;;;;3.42;1.90;;;30.80;71.10;;;;;;4954731;29;20211;-75
2022/06/01 07:59:27;;;;;;;4.30;1.90;;;30.90;70.10;;;;;;4954602;29;20231;-77
2022/06/01 08:01:55;;;;;;;5.35;2.20;;;31.10;70.70;;;;;;4954809;29;20218;-77
2022/06/01 08:04:23;;;;;;;3.22;1.77;;;30.60;69.90;;;;;;4953542;29;20638;-77
2022/06/01 08:06:57;;;;;;;4.55;2.20;;;30.20;72.00;;;;;;4954008;29;20311;-77
2022/06/01 08:09:25;;;;;;;4.07;2.20;;;30.80;70.00;;;;;;4954110;29;20319;-79
2022/06/01 08:14:40;;;;;;;2.55;2.20;;;31.10;69.40;;;;;;4953579;29;20207;-77
2022/06/01 08:17:09;;;;;;;2.63;1.83;;;31.10;69.80;;;;;;4954885;29;20215;-76
2022/06/01 08:19:37;;;;;;;2.65;1.90;;;31.50;66.90;;;;;;4950592;28;20270;-80
2022/06/01 08:22:06;;;;;;;4.82;2.10;;;31.30;70.00;;;;;;4956224;29;20341;-79
2022/06/01 08:24:34;;;;;;;3.22;2.17;;;30.70;70.10;;;;;;4955957;29;20212;-77
2022/06/01 08:27:03;;;;;;;4.45;1.95;;;30.50;69.90;;;;;;4950563;28;20375;-78
2022/06/01 08:29:32;;;;;;;3.53;2.10;;;30.70;68.30;;;;;;4950620;29;20278;-77
2022/06/01 08:32:00;;;;;;;3.88;1.92;;;29.60;73.00;;;;;;4954706;29;20219;-78
2022/06/01 08:34:29;;;;;;;5.43;2.40;;;30.40;72.10;;;;;;4955013;29;20283;-78
2022/06/01 08:36:57;;;;;;;2.67;1.80;;;29.30;71.80;;;;;;4958747;29;20216;-78
2022/06/01 08:39:25;;;;;;;6.03;2.10;;;30.30;69.00;;;;;;4962589;28;20673;-77
2022/06/01 08:41:55;;;;;;;4.20;2.08;;;30.60;65.00;;;;;;4955523;29;20259;-80
2022/06/01 08:44:34;;;;;;;3.83;2.25;;;30.20;65.50;;;;;;4956240;29;20724;-79
2022/06/01 08:47:06;;;;;;;3.38;1.80;;;30.40;65.90;;;;;;4956626;29;20211;-79
2022/06/01 08:49:36;;;;;;;3.97;1.88;;;30.80;67.70;;;;;;4955996;29;20258;-79
2022/06/01 08:52:07;;;;;;;3.90;1.67;;;30.90;69.40;;;;;;4948342;28;20258;-79
2022/06/01 08:54:36;;;;;;;5.15;1.50;;;30.80;61.50;;;;;;4953994;29;20918;-80
2022/06/01 08:57:07;;;;;;;1.50;1.40;;;30.60;64.40;;;;;;4957923;28;20211;-80
2022/06/01 08:59:44;;;;;;;2.55;1.73;;;31.10;62.50;;;;;;4955777;29;20263;-78
2022/06/01 09:02:35;;;;;;;2.25;1.52;;;30.90;59.00;;;;;;4954950;29;20246;-78
2022/06/01 09:05:09;;;;;;;4.10;1.58;;;30.10;58.90;;;;;;4952906;29;20220;-78
2022/06/01 09:07:44;;;;;;;3.58;1.58;;;29.10;65.30;;;;;;4954803;29;20207;-79
2022/06/01 09:10:36;;;;;;;1.80;1.70;;;29.30;67.20;;;;;;4955177;29;20816;-78
2022/06/01 09:13:09;;;;;;;2.33;1.60;;;30.00;61.50;;;;;;4956195;29;20222;-79
2022/06/01 09:15:45;;;;;;;2.92;1.83;;;30.10;61.80;;;;;;4955903;28;20211;-78
2022/06/01 09:18:16;;;;;;;3.88;1.65;;;28.50;62.90;;;;;;4957400;29;20638;-76
2022/06/01 09:23:31;;;;;;;2.58;1.42;;;26.60;69.60;;;;;;4954069;29;20553;-75
2022/06/01 09:26:00;;;;;;;2.50;1.38;;;25.40;68.80;;;;;;4954336;29;20211;-75
2022/06/01 09:28:30;;;;;;;2.00;1.50;;;24.60;70.20;;;;;;4955774;29;20214;-76
2022/06/01 09:31:02;;;;;;;4.30;1.60;;;24.70;71.10;;;;;;4955897;28;20254;-75
2022/06/01 09:33:32;;;;;;;2.08;1.30;;;24.70;67.60;;;;;;4958387;28;20211;-75
2022/06/01 09:36:22;;;;;;;3.42;1.40;;;25.60;66.80;;;;;;4951385;29;20207;-76
2022/06/01 09:38:55;;;;;;;2.33;1.45;;;27.30;68.80;;;;;;4950943;28;20254;-77
2022/06/01 09:41:31;;;;;;;4.03;1.52;;;28.50;67.50;;;;;;4952330;28;20274;-77
2022/06/01 09:44:02;;;;;;;3.35;1.55;;;29.60;65.60;;;;;;4954652;29;20211;-78
2022/06/01 09:46:35;;;;;;;2.00;1.30;;;30.20;58.60;;;;;;4954541;28;20219;-78
2022/06/01 09:49:09;;;;;;;1.75;1.30;;;29.80;59.60;;;;;;4954991;29;20203;-78
2022/06/01 09:51:40;;;;;;;3.65;1.42;;;29.80;61.80;;;;;;4954687;28;20208;-78
2022/06/01 09:54:11;;;;;;;2.63;1.40;;;29.70;58.50;;;;;;4955129;29;20220;-78
2022/06/01 09:56:46;;;;;;;3.25;1.35;;;28.30;63.90;;;;;;4955380;29;20211;-77
2022/06/01 10:07:49;;;;;;;4.32;1.25;;;29.10;65.20;;;;;;4957044;28;20215;-77
2022/06/01 10:10:26;;;;;;;3.30;1.50;;;28.60;61.30;;;;;;4955959;28;20207;-77
2022/06/01 10:12:55;;;;;;;3.22;1.42;;;29.70;62.30;;;;;;4966431;28;20281;-77
2022/06/01 10:15:31;;;;;;;3.15;1.30;;;30.00;62.70;;;;;;4957996;29;20211;-78
2022/06/01 10:18:11;;;;;;;1.80;1.20;;;29.60;59.60;;;;;;4958774;28;20239;-78
2022/06/01 10:20:44;;;;;;;2.55;1.40;;;29.10;65.80;;;;;;4957105;28;20226;-77
2022/06/01 10:23:18;;;;;;;2.13;1.30;;;28.80;63.40;;;;;;4965787;28;20223;-76
2022/06/01 10:25:52;;;;;;;2.75;1.33;;;29.10;60.90;;;;;;4960775;29;20577;-78
2022/06/01 10:28:26;;;;;;;3.60;1.30;;;29.10;62.20;;;;;;4957029;29;20656;-77
2022/06/01 10:31:24;;;;;;;4.55;1.50;;;28.50;62.00;;;;;;4958636;29;20204;-77
2022/06/01 10:34:02;;;;;;;2.42;1.30;;;28.90;64.80;;;;;;4960677;28;20208;-76
2022/06/01 10:36:41;;;;;;;4.10;1.50;;;29.00;63.20;;;;;;4955140;29;20207;-79
2022/06/01 10:39:17;;;;;;;2.75;1.40;;;29.30;65.80;;;;;;4955693;28;20245;-75
2022/06/01 10:41:49;;;;;;;1.90;1.40;;;29.00;67.00;;;;;;4953224;28;20212;-77
2022/06/01 10:44:24;;;;;;;1.88;1.20;;;28.90;60.00;;;;;;4948984;29;20685;-78
2022/06/01 10:46:58;;;;;;;2.17;1.50;;;28.20;68.30;;;;;;4951277;29;20230;-76
2022/06/01 10:49:36;;;;;;;3.25;1.60;;;27.80;65.90;;;;;;4947115;29;20699;-78
2022/06/01 10:52:22;;;;;;;2.47;1.48;;;27.40;67.60;;;;;;4953054;28;20561;-76
2022/06/01 10:55:03;;;;;;;2.75;1.58;;;27.70;64.70;;;;;;4954860;29;20672;-76
2022/06/01 10:57:31;;;;;;;1.38;1.25;;;27.30;67.90;;;;;;4955905;29;20255;-75
2022/06/01 11:00:00;;;;;;;3.83;1.40;;;27.20;65.70;;;;;;4956110;29;20739;-76
2022/06/01 11:02:47;;;;;;;3.22;1.50;;;26.80;67.00;;;;;;4958360;29;21713;-77
2022/06/01 11:05:34;;;;;;;2.23;1.37;;;26.80;66.80;;;;;;4955440;29;20297;-78
2022/06/01 11:08:14;;;;;;;3.93;1.40;;;26.60;68.20;;;;;;4954923;28;20243;-78
2022/06/01 11:10:53;;;;;;;2.93;1.47;;;26.20;69.90;;;;;;4954648;28;20215;-75
2022/06/01 11:13:39;;;;;;;2.87;1.60;;;26.00;70.80;;;;;;4948837;28;20207;-76
2022/06/01 11:16:22;;;;;;;4.17;1.60;;;26.10;72.80;;;;;;4954768;28;20212;-78
2022/06/01 11:19:02;;;;;;;2.97;1.60;;;26.00;71.50;;;;;;4948795;28;20235;-79
2022/06/01 11:21:41;;;;;;;1.87;1.40;;;25.60;70.80;;;;;;4954635;28;20228;-76
2022/06/01 11:24:27;;;;;;;2.13;1.40;;;25.40;74.40;;;;;;4954942;28;20287;-78
2022/06/01 11:27:37;;;;;;;4.83;1.60;;;25.40;71.30;;;;;;4946824;28;20228;-76
2022/06/01 11:30:12;;;;;;;3.33;1.50;;;24.90;78.40;;;;;;4954273;28;20211;-79
2022/06/01 11:32:45;;;;;;;2.10;1.60;;;25.00;76.10;;;;;;4952227;29;20238;-77
2022/06/01 11:35:20;;;;;;;4.67;1.30;;;25.10;69.40;;;;;;4952326;28;20267;-78
2022/06/01 11:37:58;;;;;;;2.13;1.47;;;25.00;72.00;;;;;;4953606;29;20668;-76
2022/06/01 11:40:43;;;;;;;2.97;1.33;;;24.90;71.80;;;;;;4958825;28;20283;-77
2022/06/01 11:43:21;;;;;;;2.60;1.40;;;24.90;69.70;;;;;;4953192;28;20240;-76
2022/06/01 11:45:54;;;;;;;3.53;1.40;;;24.70;73.50;;;;;;4950845;28;20278;-77
2022/06/01 11:48:29;;;;;;;4.70;1.40;;;24.60;73.90;;;;;;4955079;28;20215;-76
2022/06/01 11:51:14;;;;;;;2.40;1.50;;;24.40;72.00;;;;;;4956286;28;20286;-76
2022/06/01 11:53:59;;;;;;;4.27;1.50;;;24.70;74.30;;;;;;4951259;29;20255;-77
2022/06/01 11:56:44;;;;;;;2.53;1.33;;;25.30;70.60;;;;;;4956837;29;20262;-74
2022/06/01 11:59:21;;;;;;;3.23;1.30;;;25.20;73.70;;;;;;4956765;29;20226;-77
2022/06/01 12:01:53;;;;;;;3.07;1.40;;;25.20;70.90;;;;;;4955036;29;20262;-79
2022/06/01 12:04:29;;;;;;;2.10;1.20;;;25.60;72.90;;;;;;4951047;28;20674;-76
2022/06/01 12:07:05;;;;;;;2.60;1.30;;;25.60;69.20;;;;;;4954805;28;20207;-77
2022/06/01 12:09:41;;;;;;;2.37;1.47;;;26.10;71.20;;;;;;4944111;28;20208;-78
2022/06/01 12:12:42;;;;;;;1.93;1.53;;;26.50;68.90;;;;;;4951237;28;20198;-76
2022/06/01 12:15:24;;;;;;;2.43;1.30;;;26.60;69.90;;;;;;4953581;29;20262;-75
2022/06/01 12:18:18;;;;;;;3.53;1.43;;;26.90;72.40;;;;;;4960350;28;20203;-77
2022/06/01 12:20:53;;;;;;;1.63;1.20;;;26.90;65.70;;;;;;4956578;28;20207;-79
2022/06/01 12:30:10;;;;;;;2.23;1.20;;;26.30;70.30;;;;;;4933619;28;20215;-75
2022/06/01 12:33:11;;;;;;;2.40;1.20;;;26.30;66.90;;;;;;4950991;29;20204;-77
2022/06/01 12:35:53;;;;;;;4.90;1.33;;;26.20;64.60;;;;;;4951058;28;20302;-76
2022/06/01 12:38:28;;;;;;;3.03;1.43;;;26.30;65.90;;;;;;4954513;29;20694;-78
2022/06/01 12:41:11;;;;;;;2.20;1.43;;;26.00;61.50;;;;;;4947785;28;20230;-78
2022/06/01 12:43:47;;;;;;;3.87;1.47;;;25.50;76.20;;;;;;4959267;29;20211;-76
2022/06/01 12:46:27;;;;;;;3.67;1.33;;;25.30;72.20;;;;;;4955527;29;20217;-78
2022/06/01 12:49:20;;;;;;;3.07;1.47;;;25.20;75.20;;;;;;4954783;29;20649;-79
2022/06/01 12:51:49;;;;;;;4.03;1.70;;;25.00;72.80;;;;;;4954168;29;20243;-76
2022/06/01 12:54:26;;;;;;;1.87;1.40;;;24.80;72.00;;;;;;4952700;29;20204;-78
2022/06/01 12:56:54;;;;;;;3.17;1.40;;;24.90;68.80;;;;;;4954260;29;20254;-75
2022/06/01 12:59:24;;;;;;;2.93;1.60;;;25.00;73.50;;;;;;4954230;29;20246;-75
2022/06/01 13:01:58;;;;;;;2.67;1.50;;;25.10;71.80;;;;;;4954237;29;20219;-76
2022/06/01 13:04:31;;;;;;;4.83;1.77;;;25.30;69.20;;;;;;4952536;29;20715;-76
2022/06/01 13:06:59;;;;;;;1.73;1.63;;;25.70;70.80;;;;;;4952788;29;20211;-78
2022/06/01 13:09:32;;;;;;;2.57;1.73;;;25.70;68.90;;;;;;4953294;28;20237;-76
2022/06/01 13:15:11;;;;;;;3.03;1.60;;;25.40;75.60;;;;;;4951298;29;20262;-79
2022/06/01 13:17:49;;;;;;;5.27;1.53;;;25.00;71.70;;;;;;4951976;29;20267;-77
2022/06/01 13:20:22;;;;;;;5.83;2.60;;;25.00;71.00;;;;;;4953774;29;20230;-78
2022/06/01 13:22:51;;;;;;;2.90;1.57;;;24.70;79.30;;;;;;4953156;29;20761;-79
2022/06/01 13:25:25;;;;;;;4.80;1.40;;;24.70;79.00;;;;;;4954087;29;20208;-76
2022/06/01 13:27:55;;;;;;;3.10;1.60;;;24.60;73.40;;;;;;4952709;29;20279;-75
2022/06/01 13:30:24;;;;;;;4.93;1.60;;;24.40;76.20;;;;;;4953691;29;20282;-78
2022/06/01 13:32:53;;;;;;;3.70;1.63;;;24.20;81.60;;;;;;4952825;29;20207;-74
2022/06/01 13:35:32;;;;;;;3.43;1.60;;;24.40;75.10;;;;;;4953457;29;20800;-78
2022/06/01 13:38:02;;;;;;;4.10;1.60;;;24.30;75.40;;;;;;4953337;29;20207;-77
2022/06/01 13:40:33;;;;;;;4.93;1.50;;;24.40;71.30;;;;;;4947380;29;20730;-77
2022/06/01 13:43:08;;;;;;;3.13;1.40;;;24.60;73.00;;;;;;4955393;28;20258;-76
2022/06/01 13:45:40;;;;;;;2.00;1.40;;;24.70;76.30;;;;;;4956478;29;20199;-78
2022/06/01 13:48:16;;;;;;;3.10;1.30;;;24.90;73.00;;;;;;4956543;29;20226;-77
2022/06/01 13:50:53;;;;;;;2.37;1.33;;;24.90;73.60;;;;;;4957215;29;20219;-77
2022/06/01 13:53:31;;;;;;;1.67;1.20;;;25.20;75.30;;;;;;4953595;29;20227;-77
2022/06/01 13:56:07;;;;;;;3.47;1.50;;;25.20;72.80;;;;;;4958074;29;20640;-77
2022/06/01 13:58:41;;;;;;;2.30;1.70;;;24.90;73.00;;;;;;4960384;29;20231;-76
2022/06/01 14:01:16;;;;;;;2.07;1.50;;;24.90;72.20;;;;;;4951599;29;20214;-74
2022/06/01 14:03:52;;;;;;;4.47;1.57;;;24.90;72.30;;;;;;4956703;29;20314;-75
2022/06/01 14:06:33;;;;;;;2.87;1.47;;;24.80;70.60;;;;;;4957154;29;20222;-76
2022/06/01 14:09:03;;;;;;;5.23;1.50;;;24.50;74.40;;;;;;4948603;28;20227;-75
2022/06/01 14:11:32;;;;;;;4.87;1.80;;;24.40;76.40;;;;;;4968910;29;20258;-76
2022/06/01 14:14:03;;;;;;;3.00;1.30;;;24.20;71.60;;;;;;4955387;29;20254;-79
2022/06/01 14:16:33;;;;;;;2.07;1.50;;;23.80;70.60;;;;;;4956538;29;20693;-76
2022/06/01 14:19:03;;;;;;;1.73;1.30;;;23.50;69.80;;;;;;4958332;28;20215;-77
2022/06/01 14:21:31;;;;;;;5.43;1.33;;;23.40;72.80;;;;;;4960936;28;20226;-75
2022/06/01 14:24:00;;;;;;;4.97;1.53;;;23.10;76.10;;;;;;4956352;29;20235;-77
2022/06/01 14:29:14;;;;;;;3.30;1.50;;;22.60;72.30;;;;;;4954363;28;20592;-77
2022/06/01 14:31:47;;;;;;;5.03;1.50;;;22.50;74.20;;;;;;4950618;29;20235;-78
2022/06/01 14:34:18;;;;;;;2.87;1.40;;;22.20;75.70;;;;;;4951058;28;20207;-79
2022/06/01 14:36:47;;;;;;;3.50;1.50;;;22.20;76.80;;;;;;4945247;29;20714;-76
2022/06/01 14:39:15;;;;;;;1.77;1.27;;;22.20;77.70;;;;;;4955480;29;20301;-76
2022/06/01 14:41:45;;;;;;;2.40;1.47;;;22.20;75.40;;;;;;4946763;28;20235;-77
2022/06/01 14:44:15;;;;;;;3.00;1.30;;;22.20;77.10;;;;;;4954593;29;20319;-77
2022/06/01 14:46:44;;;;;;;4.40;1.40;;;22.20;76.50;;;;;;4954223;28;20275;-79
2022/06/01 14:49:16;;;;;;;1.63;1.30;;;22.20;77.20;;;;;;4953457;29;20299;-75
2022/06/01 14:51:52;;;;;;;4.10;1.53;;;22.20;75.90;;;;;;4955305;28;20219;-77
2022/06/01 14:54:22;;;;;;;3.60;1.60;;;22.10;78.30;;;;;;4951907;28;20235;-75
2022/06/01 14:56:56;;;;;;;2.47;1.60;;;22.30;79.60;;;;;;4950915;28;20230;-77
2022/06/01 14:59:25;;;;;;;3.43;1.50;;;22.40;80.80;;;;;;4954484;29;20208;-77
2022/06/01 15:01:58;;;;;;;4.40;1.50;;;22.40;79.40;;;;;;4955337;29;20203;-77
2022/06/01 15:04:30;;;;;;;3.87;1.50;;;22.30;79.40;;;;;;4954149;29;20709;-74
2022/06/01 15:06:59;;;;;;;2.77;1.20;;;22.30;80.10;;;;;;4955923;29;20212;-78
2022/06/01 15:09:28;;;;;;;5.37;1.80;;;22.20;81.10;;;;;;4955502;29;20208;-75
2022/06/01 15:11:56;;;;;;;1.63;1.30;;;22.20;82.30;;;;;;4957103;28;20219;-77
2022/06/01 15:14:24;;;;;;;1.43;1.23;;;22.20;82.10;;;;;;4954572;28;20212;-78
2022/06/01 15:16:55;;;;;;;3.90;1.63;;;22.20;81.80;;;;;;4955082;28;20220;-76
2022/06/01 15:19:29;;;;;;;5.13;1.77;;;22.20;84.70;;;;;;4952125;29;20732;-76
2022/06/01 15:21:58;;;;;;;6.43;2.00;;;22.00;84.90;;;;;;4947410;28;20565;-75
2022/06/01 15:24:26;;;;;;;2.57;2.00;;;22.00;82.10;;;;;;4949386;28;20269;-77
2022/06/01 15:26:54;;;;;;;5.97;1.80;;;22.00;84.20;;;;;;4955084;29;20271;-76
2022/06/01 15:40:29;;;;;;;2.27;1.63;;;21.50;84.90;;;;;;4942990;28;20255;-78
2022/06/01 15:42:57;;;;;;;3.07;1.50;;;21.20;84.10;;;;;;4954480;29;20294;-75
2022/06/01 15:45:27;;;;;;;2.23;1.60;;;21.20;85.30;;;;;;4946063;28;20343;-77
2022/06/01 15:47:59;;;;;;;4.67;1.80;;;21.10;84.80;;;;;;4950399;28;20207;-76
2022/06/01 15:50:29;;;;;;;4.67;1.77;;;20.90;86.90;;;;;;4954597;28;20203;-77
2022/06/01 15:52:57;;;;;;;1.53;1.43;;;20.80;87.00;;;;;;4953934;28;20243;-77
2022/06/01 15:55:26;;;;;;;5.03;1.63;;;20.70;86.40;;;;;;4960315;28;20223;-77
2022/06/01 15:57:54;;;;;;;2.20;1.30;;;20.60;89.40;;;;;;4954131;28;20564;-77
2022/06/01 16:00:24;;;;;;;2.83;1.53;;;20.40;89.60;;;;;;4955112;28;20301;-79
2022/06/01 16:02:53;;;;;;;3.67;1.27;;;20.20;90.30;;;;;;4965344;28;20614;-77
2022/06/01 16:05:23;;;;;;;3.57;1.33;;;19.80;91.80;;;;;;4960029;28;20228;-78
2022/06/01 16:07:53;;;;;;;4.63;1.60;;;19.40;92.50;;;;;;4947398;29;20204;-77
2022/06/01 16:10:22;;;;;;;4.53;1.37;;;19.20;93.00;;;;;;4962718;28;20226;-78
2022/06/01 16:12:50;;;;;;;3.87;1.70;;;19.00;92.80;;;;;;4965244;28;20614;-76
2022/06/01 16:15:19;;;;;;;4.27;1.47;;;18.90;93.50;;;;;;4961269;29;20207;-77
2022/06/01 16:17:49;;;;;;;4.97;1.70;;;18.70;93.60;;;;;;4964579;28;20622;-73
2022/06/01 16:20:18;;;;;;;2.63;1.37;;;18.60;93.50;;;;;;4963437;28;20215;-76
2022/06/01 16:22:46;;;;;;;1.40;1.30;;;18.50;93.10;;;;;;4962541;28;20729;-73
2022/06/01 16:25:17;;;;;;;3.60;1.30;;;18.30;93.00;;;;;;4957766;28;20320;-75
2022/06/01 16:27:45;;;;;;;3.10;1.50;;;18.10;94.20;;;;;;4961407;28;20203;-77
2022/06/01 16:30:14;;;;;;;1.80;1.40;;;18.10;97.40;;;;;;4954444;28;20216;-78
2022/06/01 16:32:44;;;;;;;4.37;1.80;;;18.00;97.80;;;;;;4957388;28;20648;-74
2022/06/01 16:35:14;;;;;;;2.50;1.70;;;17.90;99.80;;;;;;4956976;28;20272;-75
2022/06/01 16:37:43;;;;;;;3.67;1.87;;;17.70;99.90;;;;;;4956454;28;20215;-75
2022/06/01 16:40:15;;;;;;;4.10;2.37;;;17.50;99.90;;;;;;4955723;28;20211;-75
2022/06/01 16:42:47;;;;;;;5.00;2.00;;;17.40;99.90;;;;;;4954264;28;20725;-74
2022/06/01 16:45:18;;;;;;;2.37;1.80;;;17.20;99.90;;;;;;4955958;28;20735;-77
2022/06/01 16:47:47;;;;;;;3.57;1.70;;;17.10;99.90;;;;;;4955577;28;20239;-77
2022/06/01 16:50:19;;;;;;;6.77;4.23;;;17.00;99.90;;;;;;4958703;28;20242;-77
2022/06/01 16:52:47;;;;;;;30.60;21.43;;;16.90;99.90;;;;;;4954133;28;20273;-75
2022/06/01 16:55:18;;;;;;;7.87;5.03;;;16.80;99.90;;;;;;4958986;28;20700;-77
2022/06/01 16:57:47;;;;;;;5.83;3.50;;;16.70;99.90;;;;;;4959075;28;20356;-76
2022/06/01 17:00:18;;;;;;;4.50;2.43;;;16.60;99.90;;;;;;4959425;28;20377;-78
2022/06/01 17:02:47;;;;;;;4.73;2.30;;;16.50;99.90;;;;;;4956455;28;20214;-76
2022/06/01 17:05:16;;;;;;;3.60;2.60;;;16.40;99.90;;;;;;4955061;28;20286;-73
2022/06/01 17:07:45;;;;;;;5.40;2.30;;;16.20;99.90;;;;;;4956950;28;20278;-75
2022/06/01 17:10:16;;;;;;;3.93;2.37;;;16.20;99.90;;;;;;4955900;29;20207;-75
2022/06/01 17:12:47;;;;;;;4.57;2.40;;;16.10;99.90;;;;;;4953676;29;20215;-73
2022/06/01 17:15:18;;;;;;;3.03;2.40;;;16.00;99.90;;;;;;4952871;29;20270;-74
2022/06/01 17:17:50;;;;;;;6.57;2.70;;;16.00;99.90;;;;;;4955872;28;20204;-77
2022/06/01 17:20:25;;;;;;;4.73;2.37;;;16.00;99.90;;;;;;4951966;29;20251;-76
2022/06/01 17:22:54;;;;;;;4.50;2.40;;;16.00;99.90;;;;;;4952251;29;20210;-74
2022/06/01 17:25:23;;;;;;;3.37;2.33;;;15.80;99.90;;;;;;4957815;29;20231;-75
2022/06/01 17:27:53;;;;;;;2.77;2.50;;;15.80;99.90;;;;;;4963366;29;20235;-75
2022/06/01 17:30:22;;;;;;;5.10;2.70;;;15.70;99.90;;;;;;4953244;29;20216;-74
2022/06/01 17:32:51;;;;;;;3.03;2.30;;;15.60;99.90;;;;;;4960769;29;20216;-74
2022/06/01 17:35:23;;;;;;;4.03;2.43;;;15.60;99.90;;;;;;4961444;28;20207;-74
2022/06/01 17:37:52;;;;;;;6.17;3.50;;;15.50;99.90;;;;;;4960189;28;20239;-77
2022/06/01 17:40:22;;;;;;;8.47;2.87;;;15.50;99.90;;;;;;4965378;28;20266;-76
2022/06/01 17:42:50;;;;;;;9.73;3.90;;;15.40;99.90;;;;;;4954214;29;20698;-75
2022/06/01 17:45:23;;;;;;;5.77;3.03;;;15.40;99.90;;;;;;4957289;29;20224;-76
2022/06/01 17:47:52;;;;;;;5.33;3.07;;;15.30;99.90;;;;;;4953218;29;20259;-75
2022/06/01 17:50:23;;;;;;;4.47;3.10;;;15.30;99.90;;;;;;4955494;29;20208;-76
2022/06/01 17:52:51;;;;;;;4.27;2.97;;;15.20;99.90;;;;;;4957848;29;20649;-73
2022/06/01 17:55:20;;;;;;;7.13;3.17;;;15.20;99.90;;;;;;4955269;29;20207;-74
2022/06/01 17:57:49;;;;;;;5.00;2.80;;;15.20;99.90;;;;;;4953684;29;20239;-74
2022/06/01 18:00:25;;;;;;;6.03;3.13;;;15.10;99.90;;;;;;4955120;29;20208;-78
2022/06/01 18:02:53;;;;;;;4.40;3.10;;;15.10;99.90;;;;;;4957420;28;20231;-74
2022/06/01 18:05:22;;;;;;;4.23;3.30;;;15.10;99.90;;;;;;4947251;28;20252;-74
2022/06/01 18:07:50;;;;;;;4.47;2.93;;;15.10;99.90;;;;;;4957826;28;20212;-74